createdAt,value
2023-01-13T00:01:46.143Z,100198.72
2023-01-13T00:04:16.697Z,100200.00
2023-01-13T00:06:44.571Z,100205.28
2023-01-13T00:09:16.187Z,100190.06
2023-01-13T00:11:46.682Z,100194.50
2023-01-13T00:14:22.603Z,100195.53
2023-01-13T00:16:52.864Z,100199.22
2023-01-13T00:19:24.949Z,100189.59
2023-01-13T00:21:53.605Z,100184.53
2023-01-13T00:24:22.933Z,100182.03
2023-01-13T00:26:58.276Z,100162.41
2023-01-13T00:29:30.251Z,100176.47
2023-01-13T00:32:01.381Z,100169.75
2023-01-13T00:34:31.383Z,100171.50
2023-01-13T00:36:59.061Z,100171.66
2023-01-13T00:39:29.473Z,100160.47
2023-01-13T00:42:16.483Z,100156.34
2023-01-13T00:44:47.624Z,100157.34
2023-01-13T00:47:26.237Z,100157.50
2023-01-13T00:49:55.436Z,100164.56
2023-01-13T00:52:25.381Z,100170.81
2023-01-13T00:54:58.470Z,100170.88
2023-01-13T00:57:32.644Z,100173.66
2023-01-13T01:00:06.323Z,100179.78
2023-01-13T01:02:53.844Z,100179.94
2023-01-13T01:05:22.732Z,100180.75
2023-01-13T01:08:00.776Z,100180.75
2023-01-13T01:10:29.869Z,100181.72
2023-01-13T01:13:04.793Z,100186.91
2023-01-13T01:15:34.263Z,100183.59
2023-01-13T01:18:05.930Z,100173.09
2023-01-13T01:20:40.089Z,100188.50
2023-01-13T01:23:11.722Z,100181.53
2023-01-13T01:25:45.937Z,100180.69
2023-01-13T01:28:14.177Z,100178.88
2023-01-13T01:30:58.749Z,100183.28
2023-01-13T01:33:27.599Z,100187.50
2023-01-13T01:35:56.177Z,100166.06
2023-01-13T01:38:31.011Z,100167.88
2023-01-13T01:41:00.843Z,100180.84
2023-01-13T01:44:05.294Z,100178.47
2023-01-13T01:46:46.793Z,100170.06
2023-01-13T01:49:45.012Z,100179.50
2023-01-13T01:52:40.994Z,100176.09
2023-01-13T01:55:41.667Z,100183.25
2023-01-13T01:58:50.091Z,100186.78
2023-01-13T02:01:21.270Z,100182.50
2023-01-13T02:04:05.276Z,100184.31
2023-01-13T02:06:34.740Z,100177.53
2023-01-13T02:09:03.099Z,100168.00
2023-01-13T02:12:00.005Z,100173.38
2023-01-13T02:14:33.678Z,100169.84
2023-01-13T02:17:49.141Z,100170.84
2023-01-13T02:20:16.729Z,100169.22
2023-01-13T02:23:57.956Z,100166.69
2023-01-13T02:26:52.456Z,100167.94
2023-01-13T02:30:28.969Z,100167.00
2023-01-13T02:33:36.177Z,100183.75
2023-01-13T02:36:47.622Z,100187.41
2023-01-13T02:43:05.262Z,100186.72
2023-01-13T02:46:01.288Z,100177.13
2023-01-13T02:48:33.062Z,100172.00
2023-01-13T02:51:10.899Z,100166.72
2023-01-13T02:54:14.689Z,100155.38
2023-01-13T02:56:59.638Z,100147.56
2023-01-13T02:59:32.920Z,100149.16
2023-01-13T03:02:03.717Z,100141.41
2023-01-13T03:04:58.962Z,100159.34
2023-01-13T03:08:18.404Z,100149.78
2023-01-13T03:11:13.196Z,100147.09
2023-01-13T03:14:20.742Z,100139.22
2023-01-13T03:17:24.851Z,100133.13
2023-01-13T03:20:41.528Z,100124.31
2023-01-13T03:23:44.464Z,100120.81
2023-01-13T03:26:57.132Z,100112.13
2023-01-13T03:30:06.393Z,100120.88
2023-01-13T03:32:45.607Z,100107.00
2023-01-13T03:35:46.270Z,100103.41
2023-01-13T03:38:43.227Z,100104.22
2023-01-13T03:41:30.832Z,100097.13
2023-01-13T03:44:22.934Z,100095.25
2023-01-13T03:47:19.431Z,100095.09
2023-01-13T03:50:19.589Z,100090.72
2023-01-13T03:53:13.751Z,100112.28
2023-01-13T03:55:57.313Z,100090.25
2023-01-13T03:58:46.278Z,100100.50
2023-01-13T04:02:06.036Z,100103.81
2023-01-13T04:04:55.622Z,100100.25
2023-01-13T04:08:34.230Z,100114.09
2023-01-13T04:11:21.251Z,100126.25
2023-01-13T04:13:52.917Z,100106.94
2023-01-13T04:16:31.121Z,100117.28
2023-01-13T04:19:01.389Z,100119.97
2023-01-13T04:21:38.871Z,100140.81
2023-01-13T04:24:07.924Z,100132.41
2023-01-13T04:26:35.531Z,100143.75
2023-01-13T04:29:07.283Z,100142.06
2023-01-13T04:31:37.968Z,100132.88
2023-01-13T04:34:17.326Z,100152.97
2023-01-13T04:36:55.081Z,100154.06
2023-01-13T04:39:28.754Z,100151.47
2023-01-13T04:42:07.307Z,100164.66
2023-01-13T04:44:35.790Z,100150.81
2023-01-13T04:47:07.924Z,100154.47
2023-01-13T04:49:37.186Z,100142.41
2023-01-13T04:52:08.663Z,100151.84
2023-01-13T04:54:42.092Z,100130.13
2023-01-13T04:57:11.933Z,100127.53
2023-01-13T04:59:46.820Z,100124.09
2023-01-13T05:02:20.097Z,100118.97
2023-01-13T05:04:53.322Z,100119.34
2023-01-13T05:07:31.504Z,100135.16
2023-01-13T05:10:03.528Z,100116.38
2023-01-13T05:12:51.969Z,100112.56
2023-01-13T05:15:42.759Z,100126.56
2023-01-13T05:18:14.648Z,100122.53
2023-01-13T05:20:44.362Z,100129.63
2023-01-13T05:23:32.924Z,100121.13
2023-01-13T05:26:00.694Z,100125.59
2023-01-13T05:28:34.339Z,100138.84
2023-01-13T05:31:08.572Z,100130.22
2023-01-13T05:36:26.257Z,100121.59
2023-01-13T05:39:00.397Z,100134.00
2023-01-13T05:41:53.204Z,100144.34
2023-01-13T05:44:23.258Z,100144.28
2023-01-13T05:47:07.168Z,100145.84
2023-01-13T05:49:44.177Z,100151.78
2023-01-13T05:52:14.194Z,100150.91
2023-01-13T05:54:46.739Z,100165.41
2023-01-13T05:57:23.305Z,100170.53
2023-01-13T06:00:50.558Z,100165.31
2023-01-13T06:03:24.791Z,100169.72
2023-01-13T06:06:29.404Z,100182.00
2023-01-13T06:09:16.353Z,100169.28
2023-01-13T06:11:52.701Z,100177.19
2023-01-13T06:14:22.195Z,100168.69
2023-01-13T06:17:00.635Z,100167.94
2023-01-13T06:19:32.129Z,100173.22
2023-01-13T06:22:36.890Z,100178.47
2023-01-13T06:25:51.320Z,100185.50
2023-01-13T06:28:43.524Z,100176.09
2023-01-13T06:31:11.726Z,100179.75
2023-01-13T06:33:52.440Z,100179.06
2023-01-13T06:36:38.130Z,100175.63
2023-01-13T06:39:20.410Z,100176.63
2023-01-13T06:42:14.952Z,100174.22
2023-01-13T06:50:39.497Z,100188.94
2023-01-13T06:53:11.653Z,100180.19
2023-01-13T06:55:52.472Z,100170.66
2023-01-13T06:58:21.146Z,100170.72
2023-01-13T07:00:54.553Z,100175.72
2023-01-13T07:03:33.920Z,100176.63
2023-01-13T07:06:11.103Z,100175.63
2023-01-13T07:08:43.605Z,100179.00
2023-01-13T07:12:02.199Z,100182.50
2023-01-13T07:14:53.272Z,100180.84
2023-01-13T07:17:29.861Z,100184.19
2023-01-13T07:20:00.769Z,100191.88
2023-01-13T07:22:32.871Z,100175.34
2023-01-13T07:25:09.468Z,100199.69
2023-01-13T07:27:55.175Z,100198.66
2023-01-13T07:30:31.779Z,100197.84
2023-01-13T07:36:13.198Z,100206.59
2023-01-13T07:42:12.111Z,100211.88
2023-01-13T07:48:03.063Z,100208.53
2023-01-13T07:50:49.794Z,100219.81
2023-01-13T07:53:32.481Z,100225.91
2023-01-13T07:56:39.804Z,100228.53
2023-01-13T07:59:26.964Z,100224.09
2023-01-13T08:02:00.260Z,100216.41
2023-01-13T08:07:54.489Z,100219.75
2023-01-13T08:10:34.944Z,100224.88
2023-01-13T08:13:25.265Z,100215.28
2023-01-13T08:16:22.151Z,100244.56
2023-01-13T08:18:56.398Z,100229.75
2023-01-13T08:21:37.256Z,100241.88
2023-01-13T08:24:14.293Z,100235.69
2023-01-13T08:26:55.034Z,100242.28
2023-01-13T08:29:33.499Z,100244.03
2023-01-13T08:32:06.613Z,100246.50
2023-01-13T08:35:01.895Z,100245.53
2023-01-13T08:37:40.531Z,100232.50
2023-01-13T08:40:19.029Z,100264.22
2023-01-13T08:43:11.683Z,100252.81
2023-01-13T08:45:47.438Z,100259.56
2023-01-13T08:48:18.198Z,100260.56
2023-01-13T08:53:57.862Z,100262.88
2023-01-13T08:56:35.450Z,100265.09
2023-01-13T08:59:22.340Z,100258.06
2023-01-13T09:02:27.393Z,100257.06
2023-01-13T09:05:11.376Z,100263.19
2023-01-13T09:07:40.064Z,100259.69
2023-01-13T09:10:32.661Z,100272.47
2023-01-13T09:13:19.893Z,100260.34
2023-01-13T09:16:24.606Z,100274.56
2023-01-13T09:19:04.370Z,100250.50
2023-01-13T09:21:55.408Z,100274.34
2023-01-13T09:24:47.540Z,100286.47
2023-01-13T09:27:22.309Z,100287.38
2023-01-13T09:33:24.380Z,100300.47
2023-01-13T09:42:26.451Z,100306.28
2023-01-13T09:45:23.488Z,100325.19
2023-01-13T09:48:30.605Z,100335.84
2023-01-13T09:51:30.992Z,100324.59
2023-01-13T09:54:26.012Z,100341.81
2023-01-13T09:56:58.868Z,100337.53
2023-01-13T09:59:36.421Z,100325.44
2023-01-13T10:02:58.853Z,100335.09
2023-01-13T10:05:53.347Z,100334.66
2023-01-13T10:08:43.151Z,100329.06
2023-01-13T10:11:58.729Z,100340.47
2023-01-13T10:14:55.018Z,100340.47
2023-01-13T10:17:55.310Z,100349.13
2023-01-13T10:21:35.831Z,100349.34
2023-01-13T10:24:53.302Z,100364.31
2023-01-13T10:27:41.089Z,100360.03
2023-01-13T10:30:41.027Z,100378.00
2023-01-13T10:33:47.694Z,100375.94
2023-01-13T10:36:31.525Z,100374.56
2023-01-13T10:39:23.675Z,100375.94
2023-01-13T10:42:37.067Z,100377.00
2023-01-13T10:45:26.651Z,100385.00
2023-01-13T10:48:15.981Z,100382.47
2023-01-13T10:50:49.784Z,100378.31
2023-01-13T10:53:54.002Z,100386.69
2023-01-13T10:56:41.028Z,100385.66
2023-01-13T10:59:45.651Z,100382.00
2023-01-13T11:02:44.941Z,100391.41
2023-01-13T11:05:25.354Z,100401.13
2023-01-13T11:07:59.348Z,100401.97
2023-01-13T11:13:57.967Z,100393.19
2023-01-13T11:16:38.157Z,100398.31
2023-01-13T11:19:19.114Z,100395.84
2023-01-13T11:22:49.079Z,100400.94
2023-01-13T11:25:47.282Z,100400.09
2023-01-13T11:28:43.144Z,100403.53
2023-01-13T11:31:33.727Z,100406.84
2023-01-13T11:34:46.700Z,100413.06
2023-01-13T11:38:02.945Z,100413.84
2023-01-13T11:41:25.257Z,100420.56
2023-01-13T11:44:35.762Z,100416.81
2023-01-13T11:50:40.837Z,100426.72
2023-01-13T11:53:56.708Z,100430.72
2023-01-13T12:01:30.725Z,100439.75
2023-01-13T12:04:25.493Z,100436.66
2023-01-13T12:08:11.449Z,100430.81
2023-01-13T12:11:34.307Z,100450.19
2023-01-13T12:14:58.069Z,100457.41
2023-01-13T12:24:51.472Z,100469.56
2023-01-13T12:28:49.345Z,100471.59
2023-01-13T12:31:27.874Z,100466.53
2023-01-13T12:38:09.634Z,100471.59
2023-01-13T12:41:13.364Z,100469.34
2023-01-13T12:44:19.123Z,100475.13
2023-01-13T12:47:02.437Z,100485.13
2023-01-13T12:49:37.746Z,100487.53
2023-01-13T12:52:25.417Z,100491.63
2023-01-13T12:56:05.775Z,100493.19
2023-01-13T13:01:58.457Z,100505.66
2023-01-13T13:22:29.888Z,100526.97
2023-01-13T13:25:07.763Z,100536.25
2023-01-13T13:28:08.912Z,100541.25
2023-01-13T13:30:51.751Z,100539.47
2023-01-13T13:33:56.722Z,100552.38
2023-01-13T13:37:06.116Z,100566.38
2023-01-13T13:39:58.826Z,100560.34
2023-01-13T13:43:00.902Z,100580.59
2023-01-13T13:45:53.805Z,100583.06
2023-01-13T13:48:38.925Z,100575.38
2023-01-13T13:51:45.359Z,100578.97
2023-01-13T13:54:21.986Z,100579.84
2023-01-13T14:00:18.594Z,100593.66
2023-01-13T14:03:32.110Z,100598.94
2023-01-13T14:06:38.119Z,100612.69
2023-01-13T14:12:43.101Z,100617.63
2023-01-13T14:15:56.187Z,100616.72
2023-01-13T14:18:48.471Z,100624.09
2023-01-13T14:21:41.257Z,100624.72
2023-01-13T14:24:46.945Z,100646.41
2023-01-13T14:27:35.456Z,100644.63
2023-01-13T14:30:23.173Z,100656.91
2023-01-13T14:33:00.254Z,100644.00
2023-01-13T14:35:36.928Z,100659.66
2023-01-13T14:38:10.433Z,100671.09
2023-01-13T14:41:20.776Z,100661.56
2023-01-13T14:43:55.942Z,100688.59
2023-01-13T14:46:50.016Z,100687.03
2023-01-13T14:49:47.351Z,100679.34
2023-01-13T14:53:09.716Z,100681.03
2023-01-13T14:58:53.520Z,100700.41
2023-01-13T15:01:43.672Z,100705.72
2023-01-13T15:08:13.888Z,100717.84
2023-01-13T15:11:14.081Z,100728.28
2023-01-13T15:14:03.908Z,100733.50
2023-01-13T15:16:34.704Z,100732.63
2023-01-13T15:19:19.208Z,100740.47
2023-01-13T15:25:02.467Z,100749.16
2023-01-13T15:30:31.632Z,100767.56
2023-01-13T15:35:54.116Z,100769.31
2023-01-13T15:38:28.384Z,100780.63
2023-01-13T15:41:14.309Z,100778.06
2023-01-13T15:44:06.811Z,100770.38
2023-01-13T15:49:46.801Z,100779.94
2023-01-13T15:52:41.660Z,100780.03
2023-01-13T15:55:22.752Z,100790.47
2023-01-13T15:57:51.685Z,100797.44
2023-01-13T16:00:28.172Z,100796.66
2023-01-13T16:03:04.962Z,100804.56
2023-01-13T16:08:35.290Z,100815.84
2023-01-13T16:11:05.578Z,100816.75
2023-01-13T16:16:28.059Z,100830.78
2023-01-13T16:19:06.926Z,100828.22
2023-01-13T16:27:58.868Z,100849.16
2023-01-13T16:31:00.257Z,100840.44
2023-01-13T16:39:23.707Z,100856.09
2023-01-13T16:41:53.673Z,100872.47
2023-01-13T16:44:31.829Z,100861.50
2023-01-13T16:47:15.103Z,100858.41
2023-01-13T16:49:47.827Z,100853.50
2023-01-13T16:52:39.214Z,100864.00
2023-01-13T16:55:45.535Z,100873.59
2023-01-13T16:58:35.318Z,100875.19
2023-01-13T17:01:27.490Z,100879.41
2023-01-13T17:04:34.573Z,100882.81
2023-01-13T17:07:10.526Z,100884.28
2023-01-13T17:09:46.941Z,100888.34
2023-01-13T17:12:14.911Z,100889.00
2023-01-13T17:14:45.015Z,100894.09
2023-01-13T17:17:28.408Z,100891.44
2023-01-13T17:20:00.822Z,100895.81
2023-01-13T17:22:43.926Z,100899.44
2023-01-13T17:25:20.920Z,100907.41
2023-01-13T17:28:08.741Z,100917.06
2023-01-13T17:30:36.915Z,100910.94
2023-01-13T17:33:10.083Z,100917.00
2023-01-13T17:36:00.078Z,100920.56
2023-01-13T17:38:42.593Z,100899.81
2023-01-13T17:41:21.665Z,100919.84
2023-01-13T17:43:59.577Z,100921.50
2023-01-13T17:46:57.824Z,100924.94
2023-01-13T17:49:43.504Z,100923.28
2023-01-13T17:52:17.600Z,100929.44
2023-01-13T17:54:48.975Z,100945.88
2023-01-13T17:57:22.720Z,100928.13
2023-01-13T17:59:54.676Z,100936.72
2023-01-13T18:02:26.641Z,100933.88
2023-01-13T18:04:58.415Z,100947.31
2023-01-13T18:07:29.755Z,100962.38
2023-01-13T18:10:12.236Z,100964.41
2023-01-13T18:12:49.957Z,100968.13
2023-01-13T18:15:31.687Z,100971.06
2023-01-13T18:18:24.264Z,100967.91
2023-01-13T18:21:14.950Z,100971.56
2023-01-13T18:24:12.085Z,100993.28
2023-01-13T18:26:59.180Z,100993.31
2023-01-13T18:32:35.468Z,100984.66
2023-01-13T18:35:15.835Z,101003.91
2023-01-13T18:37:44.928Z,100998.81
2023-01-13T18:43:22.743Z,101007.66
2023-01-13T18:45:51.933Z,101008.59
2023-01-13T18:48:36.794Z,101018.84
2023-01-13T18:51:08.187Z,101017.13
2023-01-13T18:53:42.100Z,101023.13
2023-01-13T18:56:33.861Z,101017.03
2023-01-13T18:59:15.287Z,101021.38
2023-01-13T19:01:55.068Z,101041.25
2023-01-13T19:04:44.615Z,101046.34
2023-01-13T19:07:30.366Z,101046.34
2023-01-13T19:10:13.098Z,101049.63
2023-01-13T19:12:45.678Z,101049.53
2023-01-13T19:15:17.058Z,101053.81
2023-01-13T19:17:55.729Z,101060.63
2023-01-13T19:20:36.458Z,101069.22
2023-01-13T19:23:29.275Z,101064.69
2023-01-13T19:26:12.247Z,101070.66
2023-01-13T19:28:53.820Z,101080.97
2023-01-13T19:31:32.345Z,101069.56
2023-01-13T19:37:15.395Z,101074.72
2023-01-13T19:39:44.487Z,101068.84
2023-01-13T19:42:37.705Z,101084.41
2023-01-13T19:45:38.061Z,101081.03
2023-01-13T19:48:27.858Z,101080.09
2023-01-13T19:51:09.709Z,101084.41
2023-01-13T19:56:51.536Z,101086.91
2023-01-13T20:09:07.759Z,101102.41
2023-01-13T20:11:46.262Z,101113.72
2023-01-13T20:14:27.036Z,101124.19
2023-01-13T20:16:56.975Z,101120.00
2023-01-13T20:19:28.004Z,101126.09
2023-01-13T20:22:05.117Z,101130.47
2023-01-13T20:24:35.574Z,101145.19
2023-01-13T20:27:10.415Z,101121.69
2023-01-13T20:30:11.556Z,101128.75
2023-01-13T20:32:58.217Z,101119.66
2023-01-13T20:35:38.232Z,101128.50
2023-01-13T20:38:28.102Z,101125.22
2023-01-13T20:41:30.639Z,101127.88
2023-01-13T20:44:02.592Z,101135.72
2023-01-13T20:46:37.494Z,101132.19
2023-01-13T20:49:08.919Z,101135.63
2023-01-13T20:51:50.648Z,101138.09
2023-01-13T20:54:27.419Z,101142.31
2023-01-13T20:57:01.449Z,101146.56
2023-01-13T20:59:33.134Z,101152.41
2023-01-13T21:02:14.837Z,101155.72
2023-01-13T21:04:54.102Z,101157.28
2023-01-13T21:07:26.724Z,101164.94
2023-01-13T21:10:03.537Z,101163.06
2023-01-13T21:12:51.855Z,101159.47
2023-01-13T21:15:30.704Z,101163.72
2023-01-13T21:18:27.198Z,101167.16
2023-01-13T21:21:12.317Z,101172.38
2023-01-13T21:24:05.151Z,101175.03
2023-01-13T21:26:35.418Z,101174.97
2023-01-13T21:29:11.781Z,101165.34
2023-01-13T21:31:40.671Z,101183.50
2023-01-13T21:34:11.996Z,101187.81
2023-01-13T21:36:50.683Z,101196.31
2023-01-13T21:42:19.601Z,101190.84
2023-01-13T21:45:13.654Z,101195.09
2023-01-13T21:48:03.252Z,101194.94
2023-01-13T21:50:39.424Z,101200.94
2023-01-13T21:53:09.678Z,101196.59
2023-01-13T21:55:38.359Z,101198.28
2023-01-13T21:58:15.860Z,101205.22
2023-01-13T22:00:46.009Z,101200.78
2023-01-13T22:03:27.167Z,101220.75
2023-01-13T22:06:01.278Z,101222.41
2023-01-13T22:08:30.509Z,101220.69
2023-01-13T22:10:58.506Z,101223.31
2023-01-13T22:13:47.927Z,101221.59
2023-01-13T22:16:25.699Z,101236.34
2023-01-13T22:19:04.571Z,101234.72
2023-01-13T22:21:54.660Z,101245.97
2023-01-13T22:24:27.591Z,101243.47
2023-01-13T22:26:55.253Z,101257.47
2023-01-13T22:29:25.631Z,101253.19
2023-01-13T22:31:55.693Z,101252.41
2023-01-13T22:34:26.796Z,101256.06
2023-01-13T22:37:00.323Z,101248.38
2023-01-13T22:39:31.469Z,101256.38
2023-01-13T22:42:03.340Z,101252.28
2023-01-13T22:44:35.874Z,101247.16
2023-01-13T22:47:10.155Z,101249.09
2023-01-13T22:49:42.032Z,101253.53
2023-01-13T22:52:19.179Z,101249.31
2023-01-13T22:54:55.065Z,101254.72
2023-01-13T22:57:23.979Z,101260.84
2023-01-13T22:59:51.816Z,101247.97
2023-01-13T23:02:28.026Z,101259.38
2023-01-13T23:05:00.774Z,101261.19
2023-01-13T23:08:05.728Z,101279.50
2023-01-13T23:10:35.799Z,101263.09
2023-01-13T23:13:12.028Z,101271.84
2023-01-13T23:15:41.865Z,101281.31
2023-01-13T23:18:14.802Z,101270.06
2023-01-13T23:20:44.826Z,101275.22
2023-01-13T23:29:16.551Z,101260.44
2023-01-13T23:31:45.887Z,101256.13
2023-01-13T23:34:19.212Z,101244.81
2023-01-13T23:36:54.829Z,101251.75
2023-01-13T23:39:28.317Z,101244.81
2023-01-13T23:42:01.678Z,101243.19
2023-01-13T23:44:31.065Z,101244.91
2023-01-13T23:46:58.819Z,101239.81
2023-01-13T23:49:30.399Z,101240.72
2023-01-13T23:52:19.453Z,101245.09
2023-01-13T23:54:57.601Z,101250.41
2023-01-13T23:57:28.024Z,101247.00
2023-01-13T23:59:57.102Z,101255.56
